Time,TemperatureF,DewpointF,PressureIn,WindDirection,WindDirectionDegrees,WindSpeedMPH,WindSpeedGustMPH,Humidity,HourlyPrecipIn,Conditions,Clouds,dailyrainin,SoftwareType,DateUTC
2013-11-18 00:00:00,61.6,61.6,29.85,West,281,3.0,12.0,100,1.86,,,0.90,Wunderground v.1.15,2013-11-18 05:00:00,
2013-11-18 00:01:00,60.2,60.2,29.85,West,280,6.0,12.0,100,0.46,,,0.91,Wunderground v.1.15,2013-11-18 05:01:00,
2013-11-18 00:02:00,59.5,59.5,29.85,West,259,6.0,12.0,100,0.46,,,0.91,Wunderground v.1.15,2013-11-18 05:02:00,
2013-11-18 00:03:00,59.0,59.0,29.85,SW,217,7.0,12.0,100,0.26,,,0.91,Wunderground v.1.15,2013-11-18 05:03:00,
2013-11-18 00:05:00,58.4,58.4,29.85,SW,233,8.0,16.0,100,0.14,,,0.91,Wunderground v.1.15,2013-11-18 05:05:00,
2013-11-18 00:07:00,58.0,58.0,29.91,SW,226,10.0,16.0,100,0.09,,,0.91,Wunderground v.1.15,2013-11-18 05:07:00,
2013-11-18 00:11:00,58.0,58.0,29.91,West,260,8.0,9.0,100,0.06,,,0.91,Wunderground v.1.15,2013-11-18 05:11:00,
2013-11-18 00:17:00,58.0,58.0,29.91,SSW,202,6.0,14.0,100,0.04,,,0.91,Wunderground v.1.15,2013-11-18 05:17:00,
2013-11-18 00:22:00,57.8,57.8,29.89,WSW,245,6.0,11.0,100,0.04,,,0.92,Wunderground v.1.15,2013-11-18 05:22:00,
2013-11-18 00:27:00,57.8,57.8,29.89,West,262,8.0,17.0,100,0.04,,,0.92,Wunderground v.1.15,2013-11-18 05:27:00,
2013-11-18 00:33:00,58.1,56.1,29.89,West,277,10.0,17.0,93,0.04,,,0.92,Wunderground v.1.15,2013-11-18 05:33:00,
2013-11-18 00:38:00,58.3,55.1,29.89,SW,229,10.0,17.0,89,0.00,,,0.00,Wunderground v.1.15,2013-11-18 05:38:00,
2013-11-18 00:44:00,58.3,54.8,29.89,WSW,240,7.0,9.0,88,0.00,,,0.00,Wunderground v.1.15,2013-11-18 05:44:00,
2013-11-18 00:49:00,58.1,54.6,29.89,WSW,248,5.0,9.0,88,0.00,,,0.00,Wunderground v.1.15,2013-11-18 05:49:00,
2013-11-18 00:55:00,58.4,53.9,29.90,WSW,238,5.0,8.0,85,0.00,,,0.00,Wunderground v.1.15,2013-11-18 05:55:00,
2013-11-18 01:01:00,58.9,53.4,29.90,WSW,246,5.0,5.0,82,0.00,,,0.00,Wunderground v.1.15,2013-11-18 06:01:00,
2013-11-18 01:07:00,59.0,52.5,29.90,WSW,248,4.0,5.0,79,0.00,,,0.00,Wunderground v.1.15,2013-11-18 06:07:00,
2013-11-18 01:12:00,59.2,52.7,29.90,WSW,246,4.0,5.0,79,0.00,,,0.00,Wunderground v.1.15,2013-11-18 06:12:00,
2013-11-18 01:18:00,59.3,52.8,29.90,SW,233,4.0,8.0,79,0.00,,,0.00,Wunderground v.1.15,2013-11-18 06:18:00,
2013-11-18 01:23:00,59.2,53.0,29.91,West,259,5.0,6.0,80,0.00,,,0.00,Wunderground v.1.15,2013-11-18 06:23:00,
2013-11-18 01:28:00,59.2,53.0,29.91,WSW,250,5.0,6.0,80,0.00,,,0.00,Wunderground v.1.15,2013-11-18 06:28:00,
2013-11-18 01:34:00,59.5,53.3,29.91,WSW,238,6.0,8.0,80,0.00,,,0.00,Wunderground v.1.15,2013-11-18 06:34:00,
2013-11-18 01:39:00,59.5,53.3,29.91,WSW,244,5.0,8.0,80,0.00,,,0.00,Wunderground v.1.15,2013-11-18 06:39:00,
2013-11-18 01:45:00,59.6,53.8,29.91,West,264,5.0,7.0,81,0.00,,,0.00,Wunderground v.1.15,2013-11-18 06:45:00,
2013-11-18 01:50:00,59.8,54.0,29.91,West,264,5.0,7.0,81,0.00,,,0.00,Wunderground v.1.15,2013-11-18 06:50:00,
2013-11-18 01:56:00,59.9,54.4,29.91,West,262,4.0,5.0,82,0.00,,,0.00,Wunderground v.1.15,2013-11-18 06:56:00,
2013-11-18 02:01:00,59.9,54.7,29.91,WSW,251,4.0,8.0,83,0.00,,,0.00,Wunderground v.1.15,2013-11-18 07:01:00,
2013-11-18 02:07:00,60.1,55.2,29.91,West,261,4.0,10.0,84,0.00,,,0.00,Wunderground v.1.15,2013-11-18 07:07:00,
2013-11-18 02:12:00,60.1,54.9,29.91,West,263,4.0,6.0,83,0.00,,,0.00,Wunderground v.1.15,2013-11-18 07:12:00,
2013-11-18 02:17:00,60.1,54.9,29.91,WSW,250,4.0,7.0,83,0.00,,,0.00,Wunderground v.1.15,2013-11-18 07:17:00,
2013-11-18 02:23:00,59.9,54.4,29.92,West,266,2.0,3.0,82,0.00,,,0.00,Wunderground v.1.15,2013-11-18 07:23:00,
2013-11-18 02:29:00,59.8,54.3,29.92,West,266,1.0,3.0,82,0.00,,,0.00,Wunderground v.1.15,2013-11-18 07:29:00,
2013-11-18 02:34:00,59.6,54.1,29.92,West,266,0.0,0.0,82,0.00,,,0.00,Wunderground v.1.15,2013-11-18 07:34:00,
2013-11-18 02:40:00,59.5,54.0,29.93,West,266,0.0,0.0,82,0.00,,,0.00,Wunderground v.1.15,2013-11-18 07:40:00,
2013-11-18 02:45:00,59.3,53.1,29.93,West,266,0.0,0.0,80,0.00,,,0.00,Wunderground v.1.15,2013-11-18 07:45:00,
2013-11-18 02:51:00,59.3,52.4,29.93,West,266,0.0,0.0,78,0.00,,,0.00,Wunderground v.1.15,2013-11-18 07:51:00,
2013-11-18 02:56:00,59.3,52.1,29.94,West,270,0.0,0.0,77,0.00,,,0.00,Wunderground v.1.15,2013-11-18 07:56:00,
2013-11-18 03:02:00,59.3,51.7,29.94,West,268,1.0,2.0,76,0.00,,,0.00,Wunderground v.1.15,2013-11-18 08:02:00,
2013-11-18 03:07:00,59.0,51.1,29.94,West,267,1.0,4.0,75,0.00,,,0.00,Wunderground v.1.15,2013-11-18 08:07:00,
2013-11-18 03:12:00,59.0,50.4,29.94,West,267,0.0,1.0,73,0.00,,,0.00,Wunderground v.1.15,2013-11-18 08:12:00,
2013-11-18 03:18:00,58.9,50.3,29.94,West,267,0.0,1.0,73,0.00,,,0.00,Wunderground v.1.15,2013-11-18 08:18:00,
2013-11-18 03:23:00,58.7,49.3,29.95,West,267,0.0,0.0,71,0.00,,,0.00,Wunderground v.1.15,2013-11-18 08:23:00,
2013-11-18 03:29:00,58.6,49.2,29.95,West,267,0.0,0.0,71,0.00,,,0.00,Wunderground v.1.15,2013-11-18 08:29:00,
2013-11-18 03:34:00,58.4,49.4,29.95,West,267,0.0,0.0,72,0.00,,,0.00,Wunderground v.1.15,2013-11-18 08:34:00,
2013-11-18 03:40:00,58.3,48.9,29.95,West,267,0.0,0.0,71,0.00,,,0.00,Wunderground v.1.15,2013-11-18 08:40:00,
2013-11-18 03:45:00,58.3,48.2,29.95,West,267,0.0,0.0,69,0.00,,,0.00,Wunderground v.1.15,2013-11-18 08:45:00,
2013-11-18 03:51:00,58.1,48.0,29.95,West,267,0.0,0.0,69,0.00,,,0.00,Wunderground v.1.15,2013-11-18 08:51:00,
2013-11-18 03:56:00,58.1,48.4,29.96,West,267,0.0,0.0,70,0.00,,,0.00,Wunderground v.1.15,2013-11-18 08:56:00,
2013-11-18 04:01:00,58.0,49.4,29.96,West,267,0.0,0.0,73,0.00,,,0.00,Wunderground v.1.15,2013-11-18 09:01:00,
2013-11-18 04:07:00,57.6,49.0,29.95,West,267,0.0,0.0,73,0.00,,,0.00,Wunderground v.1.15,2013-11-18 09:07:00,
2013-11-18 04:12:00,57.5,48.5,29.95,West,267,0.0,0.0,72,0.00,,,0.00,Wunderground v.1.15,2013-11-18 09:12:00,
2013-11-18 04:17:00,57.5,49.6,29.95,West,267,0.0,0.0,75,0.00,,,0.00,Wunderground v.1.15,2013-11-18 09:17:00,
2013-11-18 04:23:00,57.3,49.4,29.95,West,267,0.0,0.0,75,0.00,,,0.00,Wunderground v.1.15,2013-11-18 09:23:00,
2013-11-18 04:28:00,57.2,49.7,29.95,West,267,0.0,0.0,76,0.00,,,0.00,Wunderground v.1.15,2013-11-18 09:28:00,
2013-11-18 04:34:00,57.2,49.7,29.95,West,267,0.0,0.0,76,0.00,,,0.00,Wunderground v.1.15,2013-11-18 09:34:00,
2013-11-18 04:39:00,57.2,50.1,29.96,West,267,0.0,0.0,77,0.00,,,0.00,Wunderground v.1.15,2013-11-18 09:39:00,
2013-11-18 04:45:00,57.2,50.1,29.96,West,267,0.0,0.0,77,0.00,,,0.00,Wunderground v.1.15,2013-11-18 09:45:00,
2013-11-18 04:50:00,57.2,50.4,29.96,West,267,0.0,1.0,78,0.00,,,0.00,Wunderground v.1.15,2013-11-18 09:50:00,
2013-11-18 04:56:00,57.0,49.9,29.96,West,265,2.0,3.0,77,0.00,,,0.00,Wunderground v.1.15,2013-11-18 09:56:00,
2013-11-18 05:02:00,56.9,49.8,29.96,West,265,2.0,4.0,77,0.00,,,0.00,Wunderground v.1.15,2013-11-18 10:02:00,
2013-11-18 05:08:00,56.7,49.6,29.97,West,265,1.0,4.0,77,0.00,,,0.00,Wunderground v.1.15,2013-11-18 10:08:00,
2013-11-18 05:13:00,56.7,48.9,29.97,West,264,1.0,3.0,75,0.00,,,0.00,Wunderground v.1.15,2013-11-18 10:13:00,
2013-11-18 05:19:00,56.5,47.9,29.97,West,265,1.0,3.0,73,0.00,,,0.00,Wunderground v.1.15,2013-11-18 10:19:00,
2013-11-18 05:24:00,56.3,46.6,29.97,West,264,2.0,5.0,70,0.00,,,0.00,Wunderground v.1.15,2013-11-18 10:24:00,
2013-11-18 05:30:00,56.0,45.2,29.97,West,264,1.0,1.0,67,0.00,,,0.00,Wunderground v.1.15,2013-11-18 10:30:00,
2013-11-18 05:35:00,55.9,44.3,29.97,West,264,0.0,1.0,65,0.00,,,0.00,Wunderground v.1.15,2013-11-18 10:35:00,
2013-11-18 05:41:00,55.6,42.4,29.98,WSW,250,1.0,3.0,61,0.00,,,0.00,Wunderground v.1.15,2013-11-18 10:41:00,
2013-11-18 05:46:00,55.4,43.4,29.98,WSW,250,1.0,3.0,64,0.00,,,0.00,Wunderground v.1.15,2013-11-18 10:46:00,
2013-11-18 05:51:00,55.1,42.3,29.98,WSW,251,0.0,2.0,62,0.00,,,0.00,Wunderground v.1.15,2013-11-18 10:51:00,
2013-11-18 05:57:00,54.8,41.6,29.98,WSW,251,0.0,2.0,61,0.00,,,0.00,Wunderground v.1.15,2013-11-18 10:57:00,
2013-11-18 06:03:00,54.5,41.7,29.98,WSW,251,0.0,2.0,62,0.00,,,0.00,Wunderground v.1.15,2013-11-18 11:03:00,
2013-11-18 06:08:00,54.1,41.4,29.98,WSW,251,0.0,2.0,62,0.00,,,0.00,Wunderground v.1.15,2013-11-18 11:08:00,
2013-11-18 06:13:00,53.6,40.9,29.98,WSW,251,0.0,1.0,62,0.00,,,0.00,Wunderground v.1.15,2013-11-18 11:13:00,
2013-11-18 06:19:00,53.3,40.2,29.98,WSW,251,1.0,4.0,61,0.00,,,0.00,Wunderground v.1.15,2013-11-18 11:19:00,
2013-11-18 06:24:00,53.2,40.1,29.98,WSW,255,1.0,5.0,61,0.00,,,0.00,Wunderground v.1.15,2013-11-18 11:24:00,
2013-11-18 06:30:00,53.1,39.1,29.98,WSW,255,1.0,3.0,59,0.00,,,0.00,Wunderground v.1.15,2013-11-18 11:30:00,
2013-11-18 06:35:00,52.8,38.9,29.98,West,262,2.0,4.0,59,0.00,,,0.00,Wunderground v.1.15,2013-11-18 11:35:00,
2013-11-18 06:40:00,52.6,37.3,29.98,West,264,2.0,2.0,56,0.00,,,0.00,Wunderground v.1.15,2013-11-18 11:40:00,
2013-11-18 06:46:00,52.5,36.8,29.98,West,265,1.0,4.0,55,0.00,,,0.00,Wunderground v.1.15,2013-11-18 11:46:00,
2013-11-18 06:52:00,52.6,37.3,29.98,West,260,2.0,4.0,56,0.00,,,0.00,Wunderground v.1.15,2013-11-18 11:52:00,
2013-11-18 06:57:00,52.5,38.1,29.98,West,259,2.0,4.0,58,0.00,,,0.00,Wunderground v.1.15,2013-11-18 11:57:00,
2013-11-18 07:03:00,52.2,37.9,29.98,WSW,252,2.0,3.0,58,0.00,,,0.00,Wunderground v.1.15,2013-11-18 12:03:00,
2013-11-18 07:08:00,52.0,36.8,29.98,WSW,246,2.0,4.0,56,0.00,,,0.00,Wunderground v.1.15,2013-11-18 12:08:00,
2013-11-18 07:14:00,51.9,36.7,29.98,WSW,248,1.0,1.0,56,0.00,,,0.00,Wunderground v.1.15,2013-11-18 12:14:00,
2013-11-18 07:19:00,52.0,37.2,29.98,WSW,253,1.0,3.0,57,0.00,,,0.00,Wunderground v.1.15,2013-11-18 12:19:00,
2013-11-18 07:25:00,51.7,37.4,29.99,WSW,252,1.0,3.0,58,0.00,,,0.00,Wunderground v.1.15,2013-11-18 12:25:00,
2013-11-18 07:30:00,51.6,36.4,29.99,WSW,252,1.0,1.0,56,0.00,,,0.00,Wunderground v.1.15,2013-11-18 12:30:00,
2013-11-18 07:36:00,51.0,38.0,29.99,WSW,252,1.0,4.0,61,0.00,,,0.00,Wunderground v.1.15,2013-11-18 12:36:00,
2013-11-18 07:41:00,51.1,36.8,29.99,WSW,250,1.0,2.0,58,0.00,,,0.00,Wunderground v.1.15,2013-11-18 12:41:00,
2013-11-18 07:46:00,51.1,37.3,29.99,WSW,250,1.0,3.0,59,0.00,,,0.00,Wunderground v.1.15,2013-11-18 12:46:00,
2013-11-18 07:52:00,51.3,36.6,29.99,WSW,248,1.0,4.0,57,0.00,,,0.00,Wunderground v.1.15,2013-11-18 12:52:00,
2013-11-18 07:57:00,51.4,37.5,29.99,WSW,244,2.0,6.0,59,0.00,,,0.00,Wunderground v.1.15,2013-11-18 12:57:00,
2013-11-18 08:03:00,51.6,37.7,29.99,WSW,257,3.0,3.0,59,0.00,,,0.00,Wunderground v.1.15,2013-11-18 13:03:00,
2013-11-18 08:08:00,51.9,38.0,29.99,WSW,252,3.0,5.0,59,0.00,,,0.00,Wunderground v.1.15,2013-11-18 13:08:00,
2013-11-18 08:14:00,51.9,37.6,29.99,WSW,251,2.0,6.0,58,0.00,,,0.00,Wunderground v.1.15,2013-11-18 13:14:00,
2013-11-18 08:19:00,52.2,37.0,29.99,West,259,3.0,6.0,56,0.00,,,0.00,Wunderground v.1.15,2013-11-18 13:19:00,
2013-11-18 08:25:00,52.6,37.3,29.99,WSW,252,3.0,5.0,56,0.00,,,0.00,Wunderground v.1.15,2013-11-18 13:25:00,
2013-11-18 08:30:00,52.8,37.1,29.99,WNW,284,4.0,6.0,55,0.00,,,0.00,Wunderground v.1.15,2013-11-18 13:30:00,
2013-11-18 08:36:00,53.1,37.3,29.99,WSW,257,4.0,6.0,55,0.00,,,0.00,Wunderground v.1.15,2013-11-18 13:36:00,
2013-11-18 08:41:00,53.3,37.1,30.00,West,261,3.0,4.0,54,0.00,,,0.00,Wunderground v.1.15,2013-11-18 13:41:00,
2013-11-18 08:47:00,53.5,37.3,30.00,WSW,246,3.0,6.0,54,0.00,,,0.00,Wunderground v.1.15,2013-11-18 13:47:00,
2013-11-18 08:52:00,53.6,36.9,30.00,West,281,2.0,3.0,53,0.00,,,0.00,Wunderground v.1.15,2013-11-18 13:52:00,
2013-11-18 08:58:00,53.9,37.1,30.00,WSW,250,2.0,5.0,53,0.00,,,0.00,Wunderground v.1.15,2013-11-18 13:58:00,
2013-11-18 09:03:00,54.1,37.3,30.00,WSW,256,3.0,5.0,53,0.00,,,0.00,Wunderground v.1.15,2013-11-18 14:03:00,
2013-11-18 09:09:00,54.4,37.6,30.00,WSW,253,3.0,6.0,53,0.00,,,0.00,Wunderground v.1.15,2013-11-18 14:09:00,
2013-11-18 09:14:00,54.7,38.4,30.00,WSW,242,2.0,3.0,54,0.00,,,0.00,Wunderground v.1.15,2013-11-18 14:14:00,
2013-11-18 09:20:00,55.0,38.2,30.00,West,262,1.0,1.0,53,0.00,,,0.00,Wunderground v.1.15,2013-11-18 14:20:00,
2013-11-18 09:25:00,55.1,38.7,30.01,West,262,1.0,4.0,54,0.00,,,0.00,Wunderground v.1.15,2013-11-18 14:25:00,
2013-11-18 09:30:00,55.1,39.2,30.01,WSW,252,1.0,1.0,55,0.00,,,0.00,Wunderground v.1.15,2013-11-18 14:30:00,
2013-11-18 09:36:00,55.4,38.5,30.01,WSW,245,2.0,3.0,53,0.00,,,0.00,Wunderground v.1.15,2013-11-18 14:36:00,
2013-11-18 09:41:00,55.6,38.2,30.02,WSW,247,2.0,2.0,52,0.00,,,0.00,Wunderground v.1.15,2013-11-18 14:41:00,
2013-11-18 09:47:00,55.7,39.3,30.02,WSW,255,2.0,9.0,54,0.00,,,0.00,Wunderground v.1.15,2013-11-18 14:47:00,
2013-11-18 09:52:00,55.9,39.5,30.02,West,271,2.0,4.0,54,0.00,,,0.00,Wunderground v.1.15,2013-11-18 14:52:00,
2013-11-18 09:58:00,56.0,37.6,30.02,WSW,247,2.0,5.0,50,0.00,,,0.00,Wunderground v.1.15,2013-11-18 14:58:00,
2013-11-18 10:03:00,56.0,39.1,30.02,WSW,242,4.0,5.0,53,0.00,,,0.00,Wunderground v.1.15,2013-11-18 15:03:00,
2013-11-18 10:08:00,56.0,39.1,30.03,West,278,3.0,5.0,53,0.00,,,0.00,Wunderground v.1.15,2013-11-18 15:08:00,
2013-11-18 10:14:00,56.2,38.3,30.03,WSW,257,3.0,5.0,51,0.00,,,0.00,Wunderground v.1.15,2013-11-18 15:14:00,
2013-11-18 10:19:00,56.3,39.9,30.03,West,263,4.0,5.0,54,0.00,,,0.00,Wunderground v.1.15,2013-11-18 15:19:00,
2013-11-18 10:25:00,56.7,39.3,30.04,WSW,257,3.0,5.0,52,0.00,,,0.00,Wunderground v.1.15,2013-11-18 15:25:00,
2013-11-18 10:30:00,56.7,38.3,30.04,WSW,257,3.0,3.0,50,0.00,,,0.00,Wunderground v.1.15,2013-11-18 15:30:00,
2013-11-18 10:35:00,56.7,38.3,30.04,WSW,245,4.0,7.0,50,0.00,,,0.00,Wunderground v.1.15,2013-11-18 15:35:00,
2013-11-18 10:41:00,56.6,37.6,30.04,WSW,251,4.0,7.0,49,0.00,,,0.00,Wunderground v.1.15,2013-11-18 15:41:00,
2013-11-18 10:46:00,56.7,38.8,30.04,West,269,5.0,7.0,51,0.00,,,0.00,Wunderground v.1.15,2013-11-18 15:46:00,
2013-11-18 10:52:00,56.9,37.4,30.05,WSW,252,4.0,11.0,48,0.00,,,0.00,Wunderground v.1.15,2013-11-18 15:52:00,
2013-11-18 10:57:00,56.9,38.4,30.05,WSW,245,5.0,11.0,50,0.00,,,0.00,Wunderground v.1.15,2013-11-18 15:57:00,
2013-11-18 11:03:00,57.2,36.6,30.05,WSW,238,4.0,6.0,46,0.00,,,0.00,Wunderground v.1.15,2013-11-18 16:03:00,
2013-11-18 11:05:00,57.5,37.9,30.05,WSW,238,3.0,6.0,48,0.00,,,0.00,Wunderground v.1.15,2013-11-18 16:05:00,
2013-11-18 11:10:00,58.0,38.4,30.05,West,272,2.0,2.0,48,0.00,,,0.00,Wunderground v.1.15,2013-11-18 16:10:00,
2013-11-18 11:16:00,58.4,40.3,30.05,West,278,2.0,5.0,51,0.00,,,0.00,Wunderground v.1.15,2013-11-18 16:16:00,
2013-11-18 11:21:00,58.1,38.0,30.05,West,264,3.0,3.0,47,0.00,,,0.00,Wunderground v.1.15,2013-11-18 16:21:00,
2013-11-18 11:27:00,58.3,38.1,30.05,WSW,244,3.0,12.0,47,0.00,,,0.00,Wunderground v.1.15,2013-11-18 16:27:00,
2013-11-18 11:32:00,58.3,38.1,30.05,WSW,244,2.0,4.0,47,0.00,,,0.00,Wunderground v.1.15,2013-11-18 16:32:00,
2013-11-18 11:38:00,58.1,36.3,30.05,WNW,283,4.0,10.0,44,0.00,,,0.00,Wunderground v.1.15,2013-11-18 16:38:00,
2013-11-18 11:43:00,58.1,35.1,30.05,WNW,286,5.0,5.0,42,0.00,,,0.00,Wunderground v.1.15,2013-11-18 16:43:00,
2013-11-18 11:49:00,58.3,35.9,30.05,WSW,247,4.0,8.0,43,0.00,,,0.00,Wunderground v.1.15,2013-11-18 16:49:00,
2013-11-18 11:54:00,58.3,34.1,30.06,West,271,5.0,10.0,40,0.00,,,0.00,Wunderground v.1.15,2013-11-18 16:54:00,
2013-11-18 12:00:00,58.3,34.7,30.06,West,275,5.0,5.0,41,0.00,,,0.00,Wunderground v.1.15,2013-11-18 17:00:00,
2013-11-18 12:05:00,58.4,34.8,30.06,WNW,291,3.0,5.0,41,0.00,,,0.00,Wunderground v.1.15,2013-11-18 17:05:00,
2013-11-18 12:10:00,58.7,33.8,30.06,WSW,255,4.0,7.0,39,0.00,,,0.00,Wunderground v.1.15,2013-11-18 17:10:00,
2013-11-18 12:16:00,58.6,34.3,30.06,West,281,5.0,10.0,40,0.00,,,0.00,Wunderground v.1.15,2013-11-18 17:16:00,
2013-11-18 12:21:00,58.7,33.8,30.06,West,259,3.0,3.0,39,0.00,,,0.00,Wunderground v.1.15,2013-11-18 17:21:00,
2013-11-18 12:27:00,59.0,32.7,30.06,West,264,2.0,5.0,37,0.00,,,0.00,Wunderground v.1.15,2013-11-18 17:27:00,
2013-11-18 12:32:00,59.2,32.9,30.06,WNW,284,2.0,2.0,37,0.00,,,0.00,Wunderground v.1.15,2013-11-18 17:32:00,
2013-11-18 12:38:00,59.6,31.9,30.05,WSW,258,2.0,6.0,35,0.00,,,0.00,Wunderground v.1.15,2013-11-18 17:38:00,
2013-11-18 12:43:00,59.5,29.6,30.05,West,281,3.0,3.0,32,0.00,,,0.00,Wunderground v.1.15,2013-11-18 17:43:00,
2013-11-18 12:49:00,59.6,30.4,30.05,WNW,284,3.0,4.0,33,0.00,,,0.00,Wunderground v.1.15,2013-11-18 17:49:00,
2013-11-18 12:54:00,59.3,31.6,30.05,WNW,283,3.0,8.0,35,0.00,,,0.00,Wunderground v.1.15,2013-11-18 17:54:00,
2013-11-18 12:59:00,59.2,28.5,30.05,West,268,3.0,8.0,31,0.00,,,0.00,Wunderground v.1.15,2013-11-18 17:59:00,
2013-11-18 13:05:00,59.3,29.4,30.05,NNW,333,2.0,4.0,32,0.00,,,0.00,Wunderground v.1.15,2013-11-18 18:05:00,
2013-11-18 13:10:00,59.5,30.3,30.05,WNW,303,1.0,3.0,33,0.00,,,0.00,Wunderground v.1.15,2013-11-18 18:10:00,
2013-11-18 13:16:00,59.5,30.3,30.05,SW,229,2.0,10.0,33,0.00,,,0.00,Wunderground v.1.15,2013-11-18 18:16:00,
2013-11-18 13:21:00,59.3,31.6,30.05,SW,227,4.0,6.0,35,0.00,,,0.00,Wunderground v.1.15,2013-11-18 18:21:00,
2013-11-18 13:26:00,59.0,32.1,30.05,WSW,254,5.0,6.0,36,0.00,,,0.00,Wunderground v.1.15,2013-11-18 18:26:00,
2013-11-18 13:32:00,59.3,30.2,30.05,WSW,240,4.0,4.0,33,0.00,,,0.00,Wunderground v.1.15,2013-11-18 18:32:00,
2013-11-18 13:37:00,59.2,30.8,30.05,West,261,3.0,6.0,34,0.00,,,0.00,Wunderground v.1.15,2013-11-18 18:37:00,
2013-11-18 13:43:00,59.2,30.8,30.05,WSW,243,2.0,5.0,34,0.00,,,0.00,Wunderground v.1.15,2013-11-18 18:43:00,
2013-11-18 13:48:00,59.5,31.8,30.05,West,281,1.0,7.0,35,0.00,,,0.00,Wunderground v.1.15,2013-11-18 18:48:00,
2013-11-18 13:54:00,59.3,32.3,30.05,West,281,2.0,4.0,36,0.00,,,0.00,Wunderground v.1.15,2013-11-18 18:54:00,
2013-11-18 13:59:00,58.9,31.3,30.05,West,271,1.0,4.0,35,0.00,,,0.00,Wunderground v.1.15,2013-11-18 18:59:00,
2013-11-18 14:05:00,58.6,31.0,30.05,West,278,1.0,1.0,35,0.00,,,0.00,Wunderground v.1.15,2013-11-18 19:05:00,
2013-11-18 14:10:00,58.9,33.3,30.04,WSW,251,0.0,0.0,38,0.00,,,0.00,Wunderground v.1.15,2013-11-18 19:10:00,
2013-11-18 14:15:00,59.2,30.1,30.04,West,278,1.0,5.0,33,0.00,,,0.00,Wunderground v.1.15,2013-11-18 19:15:00,
2013-11-18 14:21:00,59.6,33.3,30.04,WSW,243,1.0,1.0,37,0.00,,,0.00,Wunderground v.1.15,2013-11-18 19:21:00,
2013-11-18 14:27:00,59.6,31.2,30.04,WSW,242,2.0,7.0,34,0.00,,,0.00,Wunderground v.1.15,2013-11-18 19:27:00,
2013-11-18 14:32:00,59.3,31.6,30.04,WSW,250,3.0,5.0,35,0.00,,,0.00,Wunderground v.1.15,2013-11-18 19:32:00,
2013-11-18 14:37:00,59.5,31.1,30.04,SW,235,2.0,8.0,34,0.00,,,0.00,Wunderground v.1.15,2013-11-18 19:37:00,
2013-11-18 14:43:00,59.2,33.6,30.04,West,278,4.0,9.0,38,0.00,,,0.00,Wunderground v.1.15,2013-11-18 19:43:00,
2013-11-18 14:48:00,59.2,32.2,30.04,West,274,4.0,9.0,36,0.00,,,0.00,Wunderground v.1.15,2013-11-18 19:48:00,
2013-11-18 14:54:00,59.6,31.2,30.04,WSW,238,3.0,4.0,34,0.00,,,0.00,Wunderground v.1.15,2013-11-18 19:54:00,
2013-11-18 14:59:00,59.8,32.8,30.04,West,265,2.0,5.0,36,0.00,,,0.00,Wunderground v.1.15,2013-11-18 19:59:00,
2013-11-18 15:05:00,59.5,31.8,30.04,WSW,249,3.0,6.0,35,0.00,,,0.00,Wunderground v.1.15,2013-11-18 20:05:00,
2013-11-18 15:10:00,59.3,31.6,30.04,WSW,252,3.0,3.0,35,0.00,,,0.00,Wunderground v.1.15,2013-11-18 20:10:00,
2013-11-18 15:16:00,58.6,31.0,30.04,West,262,3.0,6.0,35,0.00,,,0.00,Wunderground v.1.15,2013-11-18 20:16:00,
2013-11-18 15:21:00,58.4,30.8,30.04,West,277,2.0,4.0,35,0.00,,,0.00,Wunderground v.1.15,2013-11-18 20:21:00,
2013-11-18 15:26:00,58.3,32.1,30.05,West,272,1.0,4.0,37,0.00,,,0.00,Wunderground v.1.15,2013-11-18 20:26:00,
2013-11-18 15:32:00,57.8,32.3,30.05,West,271,2.0,9.0,38,0.00,,,0.00,Wunderground v.1.15,2013-11-18 20:32:00,
2013-11-18 15:37:00,57.3,32.5,30.06,SW,236,3.0,9.0,39,0.00,,,0.00,Wunderground v.1.15,2013-11-18 20:37:00,
2013-11-18 15:42:00,57.0,32.9,30.06,West,259,3.0,5.0,40,0.00,,,0.00,Wunderground v.1.15,2013-11-18 20:42:00,
2013-11-18 15:48:00,56.9,32.2,30.06,WSW,244,2.0,5.0,39,0.00,,,0.00,Wunderground v.1.15,2013-11-18 20:48:00,
2013-11-18 15:53:00,56.9,31.5,30.06,WSW,258,3.0,7.0,38,0.00,,,0.00,Wunderground v.1.15,2013-11-18 20:53:00,
2013-11-18 15:59:00,57.0,32.3,30.06,WNW,297,4.0,7.0,39,0.00,,,0.00,Wunderground v.1.15,2013-11-18 20:59:00,
2013-11-18 16:04:00,56.9,32.8,30.06,West,277,3.0,6.0,40,0.00,,,0.00,Wunderground v.1.15,2013-11-18 21:04:00,
2013-11-18 16:10:00,56.6,32.5,30.06,West,264,2.0,2.0,40,0.00,,,0.00,Wunderground v.1.15,2013-11-18 21:10:00,
2013-11-18 16:15:00,56.3,32.3,30.06,WSW,242,1.0,5.0,40,0.00,,,0.00,Wunderground v.1.15,2013-11-18 21:15:00,
2013-11-18 16:21:00,55.9,33.1,30.06,WSW,257,2.0,2.0,42,0.00,,,0.00,Wunderground v.1.15,2013-11-18 21:21:00,
2013-11-18 16:26:00,55.6,33.4,30.07,West,262,1.0,2.0,43,0.00,,,0.00,Wunderground v.1.15,2013-11-18 21:26:00,
2013-11-18 16:32:00,55.6,34.6,30.07,WNW,288,1.0,5.0,45,0.00,,,0.00,Wunderground v.1.15,2013-11-18 21:32:00,
2013-11-18 16:37:00,55.4,33.8,30.07,WSW,242,1.0,5.0,44,0.00,,,0.00,Wunderground v.1.15,2013-11-18 21:37:00,
2013-11-18 16:42:00,55.3,33.2,30.07,WNW,283,3.0,8.0,43,0.00,,,0.00,Wunderground v.1.15,2013-11-18 21:42:00,
2013-11-18 16:48:00,55.1,33.0,30.07,West,266,4.0,8.0,43,0.00,,,0.00,Wunderground v.1.15,2013-11-18 21:48:00,
2013-11-18 16:53:00,55.0,33.5,30.07,WSW,257,2.0,7.0,44,0.00,,,0.00,Wunderground v.1.15,2013-11-18 21:53:00,
2013-11-18 16:59:00,54.7,33.8,30.07,West,262,2.0,7.0,45,0.00,,,0.00,Wunderground v.1.15,2013-11-18 21:59:00,
2013-11-18 17:04:00,54.5,33.6,30.07,West,262,2.0,5.0,45,0.00,,,0.00,Wunderground v.1.15,2013-11-18 22:04:00,
2013-11-18 17:09:00,54.2,34.4,30.08,West,261,1.0,5.0,47,0.00,,,0.00,Wunderground v.1.15,2013-11-18 22:09:00,
2013-11-18 17:15:00,54.1,33.8,30.08,West,264,2.0,4.0,46,0.00,,,0.00,Wunderground v.1.15,2013-11-18 22:15:00,
2013-11-18 17:20:00,53.8,34.6,30.08,West,259,2.0,2.0,48,0.00,,,0.00,Wunderground v.1.15,2013-11-18 22:20:00,
2013-11-18 17:26:00,53.5,34.8,30.08,WSW,251,1.0,5.0,49,0.00,,,0.00,Wunderground v.1.15,2013-11-18 22:26:00,
2013-11-18 17:31:00,53.2,34.5,30.08,WSW,248,1.0,1.0,49,0.00,,,0.00,Wunderground v.1.15,2013-11-18 22:31:00,
2013-11-18 17:36:00,52.9,34.8,30.09,WSW,250,1.0,2.0,50,0.00,,,0.00,Wunderground v.1.15,2013-11-18 22:36:00,
2013-11-18 17:42:00,52.8,34.7,30.09,West,264,1.0,1.0,50,0.00,,,0.00,Wunderground v.1.15,2013-11-18 22:42:00,
2013-11-18 17:48:00,52.3,34.7,30.09,West,270,0.0,2.0,51,0.00,,,0.00,Wunderground v.1.15,2013-11-18 22:48:00,
2013-11-18 17:54:00,52.0,34.4,30.10,SW,235,0.0,2.0,51,0.00,,,0.00,Wunderground v.1.15,2013-11-18 22:54:00,
2013-11-18 18:00:00,51.7,34.1,30.10,SW,223,0.0,0.0,51,0.00,,,0.00,Wunderground v.1.15,2013-11-18 23:00:00,
2013-11-18 18:05:00,51.6,34.5,30.10,SW,229,0.0,0.0,52,0.00,,,0.00,Wunderground v.1.15,2013-11-18 23:05:00,
2013-11-18 18:11:00,51.1,35.0,30.11,SW,229,0.0,0.0,54,0.00,,,0.00,Wunderground v.1.15,2013-11-18 23:11:00,
2013-11-18 18:16:00,51.0,34.9,30.11,WSW,237,0.0,2.0,54,0.00,,,0.00,Wunderground v.1.15,2013-11-18 23:16:00,
2013-11-18 18:22:00,50.7,34.6,30.12,WSW,237,0.0,2.0,54,0.00,,,0.00,Wunderground v.1.15,2013-11-18 23:22:00,
2013-11-18 18:27:00,50.7,34.2,30.12,WSW,237,0.0,2.0,53,0.00,,,0.00,Wunderground v.1.15,2013-11-18 23:27:00,
2013-11-18 18:33:00,50.7,35.1,30.12,WSW,238,0.0,0.0,55,0.00,,,0.00,Wunderground v.1.15,2013-11-18 23:33:00,
2013-11-18 18:38:00,50.5,35.4,30.12,West,264,0.0,1.0,56,0.00,,,0.00,Wunderground v.1.15,2013-11-18 23:38:00,
2013-11-18 18:44:00,50.4,34.4,30.12,West,264,0.0,3.0,54,0.00,,,0.00,Wunderground v.1.15,2013-11-18 23:44:00,
2013-11-18 18:49:00,50.1,34.5,30.12,West,264,0.0,3.0,55,0.00,,,0.00,Wunderground v.1.15,2013-11-18 23:49:00,
2013-11-18 18:55:00,49.6,34.5,30.13,West,264,0.0,0.0,56,0.00,,,0.00,Wunderground v.1.15,2013-11-18 23:55:00,
2013-11-18 19:00:00,49.4,34.8,30.13,West,264,0.0,0.0,57,0.00,,,0.00,Wunderground v.1.15,2013-11-19 00:00:00,
2013-11-18 19:05:00,49.5,34.9,30.13,WSW,255,0.0,0.0,57,0.00,,,0.00,Wunderground v.1.15,2013-11-19 00:05:00,
2013-11-18 19:11:00,49.4,35.2,30.13,West,272,0.0,2.0,58,0.00,,,0.00,Wunderground v.1.15,2013-11-19 00:11:00,
2013-11-18 19:16:00,49.4,34.8,30.13,WSW,255,0.0,2.0,57,0.00,,,0.00,Wunderground v.1.15,2013-11-19 00:16:00,
2013-11-18 19:22:00,49.4,34.3,30.13,WSW,249,1.0,1.0,56,0.00,,,0.00,Wunderground v.1.15,2013-11-19 00:22:00,
2013-11-18 19:27:00,49.5,34.4,30.13,West,266,1.0,5.0,56,0.00,,,0.00,Wunderground v.1.15,2013-11-19 00:27:00,
2013-11-18 19:33:00,49.5,34.4,30.13,West,259,1.0,3.0,56,0.00,,,0.00,Wunderground v.1.15,2013-11-19 00:33:00,
2013-11-18 19:38:00,49.4,33.9,30.14,WSW,253,1.0,3.0,55,0.00,,,0.00,Wunderground v.1.15,2013-11-19 00:38:00,
2013-11-18 19:44:00,49.4,33.9,30.14,West,262,1.0,3.0,55,0.00,,,0.00,Wunderground v.1.15,2013-11-19 00:44:00,
2013-11-18 19:49:00,49.2,33.7,30.14,West,264,0.0,0.0,55,0.00,,,0.00,Wunderground v.1.15,2013-11-19 00:49:00,
2013-11-18 19:55:00,49.1,33.6,30.14,West,268,0.0,2.0,55,0.00,,,0.00,Wunderground v.1.15,2013-11-19 00:55:00,
2013-11-18 20:00:00,48.8,33.8,30.14,West,268,0.0,0.0,56,0.00,,,0.00,Wunderground v.1.15,2013-11-19 01:00:00,
2013-11-18 20:06:00,48.5,33.5,30.14,West,271,0.0,0.0,56,0.00,,,0.00,Wunderground v.1.15,2013-11-19 01:06:00,
2013-11-18 20:11:00,48.3,33.3,30.14,West,271,0.0,2.0,56,0.00,,,0.00,Wunderground v.1.15,2013-11-19 01:11:00,
2013-11-18 20:17:00,48.2,32.8,30.14,WSW,255,0.0,3.0,55,0.00,,,0.00,Wunderground v.1.15,2013-11-19 01:17:00,
2013-11-18 20:22:00,48.2,32.3,30.14,WSW,249,1.0,1.0,54,0.00,,,0.00,Wunderground v.1.15,2013-11-19 01:22:00,
2013-11-18 20:28:00,48.0,32.6,30.14,WSW,245,1.0,1.0,55,0.00,,,0.00,Wunderground v.1.15,2013-11-19 01:28:00,
2013-11-18 20:33:00,47.9,32.9,30.14,WSW,254,0.0,1.0,56,0.00,,,0.00,Wunderground v.1.15,2013-11-19 01:33:00,
2013-11-18 20:38:00,47.9,32.5,30.14,WSW,245,1.0,2.0,55,0.00,,,0.00,Wunderground v.1.15,2013-11-19 01:38:00,
2013-11-18 20:44:00,47.9,32.9,30.14,WSW,249,1.0,2.0,56,0.00,,,0.00,Wunderground v.1.15,2013-11-19 01:44:00,
2013-11-18 20:46:00,47.7,33.2,30.14,WSW,249,0.0,2.0,57,0.00,,,0.00,Wunderground v.1.15,2013-11-19 01:46:00,
2013-11-18 20:52:00,47.6,32.7,30.15,WSW,252,0.0,0.0,56,0.00,,,0.00,Wunderground v.1.15,2013-11-19 01:52:00,
2013-11-18 20:57:00,47.4,32.5,30.15,WSW,252,0.0,0.0,56,0.00,,,0.00,Wunderground v.1.15,2013-11-19 01:57:00,
2013-11-18 21:02:00,47.1,32.2,30.15,WSW,252,0.0,0.0,56,0.00,,,0.00,Wunderground v.1.15,2013-11-19 02:02:00,
2013-11-18 21:08:00,46.8,32.4,30.15,WSW,252,0.0,0.0,57,0.00,,,0.00,Wunderground v.1.15,2013-11-19 02:08:00,
2013-11-18 21:13:00,46.7,32.7,30.15,WSW,252,0.0,0.0,58,0.00,,,0.00,Wunderground v.1.15,2013-11-19 02:13:00,
2013-11-18 21:19:00,46.5,32.5,30.15,WSW,252,0.0,3.0,58,0.00,,,0.00,Wunderground v.1.15,2013-11-19 02:19:00,
2013-11-18 21:25:00,46.5,32.1,30.15,West,267,0.0,3.0,57,0.00,,,0.00,Wunderground v.1.15,2013-11-19 02:25:00,
2013-11-18 21:30:00,46.5,32.1,30.15,West,267,0.0,2.0,57,0.00,,,0.00,Wunderground v.1.15,2013-11-19 02:30:00,
2013-11-18 21:36:00,46.4,31.5,30.15,West,267,0.0,2.0,56,0.00,,,0.00,Wunderground v.1.15,2013-11-19 02:36:00,
2013-11-18 21:41:00,46.2,31.8,30.16,West,267,0.0,0.0,57,0.00,,,0.00,Wunderground v.1.15,2013-11-19 02:41:00,
2013-11-18 21:47:00,46.0,32.0,30.16,West,267,0.0,0.0,58,0.00,,,0.00,Wunderground v.1.15,2013-11-19 02:47:00,
2013-11-18 21:52:00,45.7,31.8,30.16,West,267,0.0,3.0,58,0.00,,,0.00,Wunderground v.1.15,2013-11-19 02:52:00,
2013-11-18 21:58:00,45.5,31.6,30.16,WSW,237,0.0,6.0,58,0.00,,,0.00,Wunderground v.1.15,2013-11-19 02:58:00,
2013-11-18 22:03:00,45.5,31.6,30.16,WSW,237,0.0,0.0,58,0.00,,,0.00,Wunderground v.1.15,2013-11-19 03:03:00,
2013-11-18 22:08:00,45.4,31.5,30.16,WSW,237,0.0,0.0,58,0.00,,,0.00,Wunderground v.1.15,2013-11-19 03:08:00,
2013-11-18 22:14:00,45.2,31.3,30.16,WSW,237,0.0,0.0,58,0.00,,,0.00,Wunderground v.1.15,2013-11-19 03:14:00,
2013-11-18 22:19:00,44.9,31.0,30.16,WSW,237,0.0,0.0,58,0.00,,,0.00,Wunderground v.1.15,2013-11-19 03:19:00,
2013-11-18 22:25:00,44.6,30.7,30.16,WSW,237,0.0,0.0,58,0.00,,,0.00,Wunderground v.1.15,2013-11-19 03:25:00,
2013-11-18 22:31:00,44.3,30.9,30.16,WSW,237,0.0,0.0,59,0.00,,,0.00,Wunderground v.1.15,2013-11-19 03:31:00,
2013-11-18 22:37:00,43.9,30.5,30.16,WSW,237,0.0,0.0,59,0.00,,,0.00,Wunderground v.1.15,2013-11-19 03:37:00,
2013-11-18 22:43:00,43.8,30.4,30.16,WSW,237,0.0,0.0,59,0.00,,,0.00,Wunderground v.1.15,2013-11-19 03:43:00,
2013-11-18 22:48:00,43.8,31.2,30.16,WSW,237,0.0,0.0,61,0.00,,,0.00,Wunderground v.1.15,2013-11-19 03:48:00,
2013-11-18 22:53:00,43.8,30.8,30.16,WSW,237,0.0,0.0,60,0.00,,,0.00,Wunderground v.1.15,2013-11-19 03:53:00,
2013-11-18 22:59:00,43.8,30.0,30.16,WSW,237,0.0,0.0,58,0.00,,,0.00,Wunderground v.1.15,2013-11-19 03:59:00,
2013-11-18 23:04:00,43.6,30.2,30.16,WSW,237,0.0,0.0,59,0.00,,,0.00,Wunderground v.1.15,2013-11-19 04:04:00,
2013-11-18 23:07:00,43.6,30.2,30.16,WSW,237,0.0,0.0,59,0.00,,,0.00,Wunderground v.1.15,2013-11-19 04:07:00,
2013-11-18 23:13:00,43.5,30.5,30.16,WSW,237,1.0,4.0,60,0.00,,,0.00,Wunderground v.1.15,2013-11-19 04:13:00,
2013-11-18 23:18:00,43.5,30.5,30.16,WSW,240,2.0,5.0,60,0.00,,,0.00,Wunderground v.1.15,2013-11-19 04:18:00,
2013-11-18 23:24:00,43.5,30.5,30.16,WSW,250,2.0,3.0,60,0.00,,,0.00,Wunderground v.1.15,2013-11-19 04:24:00,
2013-11-18 23:29:00,43.5,30.5,30.16,WSW,252,2.0,3.0,60,0.00,,,0.00,Wunderground v.1.15,2013-11-19 04:29:00,
2013-11-18 23:35:00,43.3,29.9,30.16,West,260,3.0,7.0,59,0.00,,,0.00,Wunderground v.1.15,2013-11-19 04:35:00,
2013-11-18 23:40:00,43.3,29.9,30.16,West,266,3.0,3.0,59,0.00,,,0.00,Wunderground v.1.15,2013-11-19 04:40:00,
2013-11-18 23:46:00,43.2,29.8,30.16,West,265,4.0,9.0,59,0.00,,,0.00,Wunderground v.1.15,2013-11-19 04:46:00,
2013-11-18 23:51:00,43.2,29.8,30.16,WSW,243,4.0,5.0,59,0.00,,,0.00,Wunderground v.1.15,2013-11-19 04:51:00,
2013-11-18 23:57:00,43.1,29.3,30.15,WSW,256,4.0,7.0,58,0.00,,,0.00,Wunderground v.1.15,2013-11-19 04:57:00,